sensor_id;sensor_type;location;lat;lon;timestamp;pressure;altitude;pressure_sealevel;temperature;humidity
32330;BME280;18807;52.434;13.238;2023-03-04T00:05:01;101453.13;;;2.38;100.00
32330;BME280;18807;52.434;13.238;2023-03-04T00:12:38;101448.41;;;2.33;100.00
32330;BME280;18807;52.434;13.238;2023-03-04T00:20:15;101449.03;;;2.29;100.00
32330;BME280;18807;52.434;13.238;2023-03-04T00:27:52;101432.50;;;2.31;100.00
32330;BME280;18807;52.434;13.238;2023-03-04T00:35:29;101426.69;;;2.37;100.00
32330;BME280;18807;52.434;13.238;2023-03-04T00:43:10;101423.31;;;2.39;100.00
32330;BME280;18807;52.434;13.238;2023-03-04T00:51:12;101417.59;;;2.46;100.00
32330;BME280;18807;52.434;13.238;2023-03-04T00:59:26;101402.03;;;2.51;100.00
32330;BME280;18807;52.434;13.238;2023-03-04T01:07:31;101406.81;;;2.58;100.00
32330;BME280;18807;52.434;13.238;2023-03-04T01:15:10;101398.25;;;2.62;100.00
32330;BME280;18807;52.434;13.238;2023-03-04T01:22:49;101392.22;;;2.64;100.00
32330;BME280;18807;52.434;13.238;2023-03-04T01:30:23;101373.84;;;2.66;100.00
32330;BME280;18807;52.434;13.238;2023-03-04T01:37:58;101365.31;;;2.70;100.00
32330;BME280;18807;52.434;13.238;2023-03-04T01:45:33;101363.91;;;2.76;100.00
32330;BME280;18807;52.434;13.238;2023-03-04T01:53:18;101360.56;;;2.79;100.00
32330;BME280;18807;52.434;13.238;2023-03-04T02:00:57;101358.25;;;2.85;100.00
32330;BME280;18807;52.434;13.238;2023-03-04T02:08:33;101349.69;;;2.89;100.00
32330;BME280;18807;52.434;13.238;2023-03-04T02:16:07;101338.53;;;2.94;100.00
32330;BME280;18807;52.434;13.238;2023-03-04T02:23:48;101330.22;;;3.03;100.00
32330;BME280;18807;52.434;13.238;2023-03-04T02:31:29;101333.19;;;3.09;100.00
32330;BME280;18807;52.434;13.238;2023-03-04T02:39:09;101307.94;;;3.14;100.00
32330;BME280;18807;52.434;13.238;2023-03-04T02:46:46;101303.84;;;3.19;100.00
32330;BME280;18807;52.434;13.238;2023-03-04T02:54:22;101293.59;;;3.25;100.00
32330;BME280;18807;52.434;13.238;2023-03-04T03:01:58;101290.28;;;3.29;100.00
32330;BME280;18807;52.434;13.238;2023-03-04T03:09:32;101286.81;;;3.30;100.00
32330;BME280;18807;52.434;13.238;2023-03-04T03:17:07;101288.75;;;3.34;100.00
32330;BME280;18807;52.434;13.238;2023-03-04T03:24:42;101281.91;;;3.37;100.00
32330;BME280;18807;52.434;13.238;2023-03-04T03:32:17;101274.91;;;3.38;100.00
32330;BME280;18807;52.434;13.238;2023-03-04T03:39:51;101272.44;;;3.41;100.00
32330;BME280;18807;52.434;13.238;2023-03-04T03:47:26;101268.19;;;3.44;100.00
32330;BME280;18807;52.434;13.238;2023-03-04T03:55:01;101263.00;;;3.46;100.00
32330;BME280;18807;52.434;13.238;2023-03-04T04:02:36;101248.16;;;3.48;100.00
32330;BME280;18807;52.434;13.238;2023-03-04T04:10:10;101239.47;;;3.50;100.00
32330;BME280;18807;52.434;13.238;2023-03-04T04:17:46;101239.63;;;3.53;100.00
32330;BME280;18807;52.434;13.238;2023-03-04T04:25:20;101239.84;;;3.58;100.00
32330;BME280;18807;52.434;13.238;2023-03-04T04:32:55;101235.66;;;3.61;100.00
32330;BME280;18807;52.434;13.238;2023-03-04T04:40:33;101228.78;;;3.65;100.00
32330;BME280;18807;52.434;13.238;2023-03-04T04:48:09;101221.13;;;3.71;100.00
32330;BME280;18807;52.434;13.238;2023-03-04T04:55:43;101215.19;;;3.75;100.00
32330;BME280;18807;52.434;13.238;2023-03-04T05:03:19;101214.50;;;3.79;100.00
32330;BME280;18807;52.434;13.238;2023-03-04T05:10:55;101208.91;;;3.90;100.00
32330;BME280;18807;52.434;13.238;2023-03-04T05:18:31;101211.13;;;3.99;100.00
32330;BME280;18807;52.434;13.238;2023-03-04T05:26:06;101207.69;;;4.01;100.00
32330;BME280;18807;52.434;13.238;2023-03-04T05:33:42;101208.00;;;4.07;100.00
32330;BME280;18807;52.434;13.238;2023-03-04T05:41:16;101209.16;;;4.14;100.00
32330;BME280;18807;52.434;13.238;2023-03-04T05:48:53;101195.28;;;4.18;100.00
32330;BME280;18807;52.434;13.238;2023-03-04T05:56:27;101198.16;;;4.23;100.00
32330;BME280;18807;52.434;13.238;2023-03-04T06:04:12;101199.03;;;4.23;100.00
32330;BME280;18807;52.434;13.238;2023-03-04T06:11:47;101195.44;;;4.21;100.00
32330;BME280;18807;52.434;13.238;2023-03-04T06:19:37;101195.56;;;4.24;100.00
32330;BME280;18807;52.434;13.238;2023-03-04T06:27:23;101204.47;;;4.26;100.00
32330;BME280;18807;52.434;13.238;2023-03-04T06:35:18;101196.59;;;4.28;100.00
32330;BME280;18807;52.434;13.238;2023-03-04T06:42:53;101206.44;;;4.30;100.00
32330;BME280;18807;52.434;13.238;2023-03-04T06:50:35;101196.00;;;4.33;100.00
32330;BME280;18807;52.434;13.238;2023-03-04T06:58:12;101211.94;;;4.35;100.00
32330;BME280;18807;52.434;13.238;2023-03-04T07:05:50;101200.53;;;4.36;100.00
32330;BME280;18807;52.434;13.238;2023-03-04T07:13:25;101206.03;;;4.40;100.00
32330;BME280;18807;52.434;13.238;2023-03-04T07:29:48;101212.25;;;4.42;100.00
32330;BME280;18807;52.434;13.238;2023-03-04T07:37:22;101200.94;;;4.45;100.00
32330;BME280;18807;52.434;13.238;2023-03-04T07:44:58;101208.03;;;4.46;100.00
32330;BME280;18807;52.434;13.238;2023-03-04T07:52:36;101210.75;;;4.47;100.00
32330;BME280;18807;52.434;13.238;2023-03-04T08:00:15;101214.25;;;4.46;100.00
32330;BME280;18807;52.434;13.238;2023-03-04T08:07:49;101212.84;;;4.54;100.00
32330;BME280;18807;52.434;13.238;2023-03-04T08:15:25;101214.09;;;4.62;100.00
32330;BME280;18807;52.434;13.238;2023-03-04T08:22:58;101199.22;;;4.64;100.00
32330;BME280;18807;52.434;13.238;2023-03-04T08:30:34;101196.91;;;4.72;100.00
32330;BME280;18807;52.434;13.238;2023-03-04T08:38:08;101205.75;;;4.72;100.00
32330;BME280;18807;52.434;13.238;2023-03-04T08:45:44;101203.22;;;4.75;100.00
32330;BME280;18807;52.434;13.238;2023-03-04T08:53:19;101199.88;;;4.79;100.00
32330;BME280;18807;52.434;13.238;2023-03-04T09:00:54;101188.53;;;4.82;100.00
32330;BME280;18807;52.434;13.238;2023-03-04T09:08:29;101196.81;;;4.89;100.00
32330;BME280;18807;52.434;13.238;2023-03-04T09:16:08;101184.13;;;5.01;100.00
32330;BME280;18807;52.434;13.238;2023-03-04T09:23:42;101176.94;;;5.19;100.00
32330;BME280;18807;52.434;13.238;2023-03-04T09:31:18;101180.13;;;5.31;100.00
32330;BME280;18807;52.434;13.238;2023-03-04T09:38:52;101188.78;;;5.48;100.00
32330;BME280;18807;52.434;13.238;2023-03-04T09:46:33;101193.69;;;5.59;100.00
32330;BME280;18807;52.434;13.238;2023-03-04T09:54:12;101191.66;;;5.74;100.00
32330;BME280;18807;52.434;13.238;2023-03-04T10:02:17;101189.50;;;5.85;100.00
32330;BME280;18807;52.434;13.238;2023-03-04T10:09:58;101192.88;;;6.03;94.47
32330;BME280;18807;52.434;13.238;2023-03-04T10:17:36;101191.56;;;6.14;84.85
32330;BME280;18807;52.434;13.238;2023-03-04T10:25:17;101200.59;;;6.19;83.83
32330;BME280;18807;52.434;13.238;2023-03-04T10:32:53;101196.31;;;6.23;82.77
32330;BME280;18807;52.434;13.238;2023-03-04T10:40:27;101195.47;;;6.24;80.73
32330;BME280;18807;52.434;13.238;2023-03-04T10:48:02;101198.22;;;6.27;82.17
32330;BME280;18807;52.434;13.238;2023-03-04T10:55:43;101199.38;;;6.33;87.95
32330;BME280;18807;52.434;13.238;2023-03-04T11:03:30;101197.50;;;6.31;88.73
32330;BME280;18807;52.434;13.238;2023-03-04T11:11:20;101196.91;;;6.38;85.03
32330;BME280;18807;52.434;13.238;2023-03-04T11:18:58;101194.38;;;6.41;85.91
32330;BME280;18807;52.434;13.238;2023-03-04T11:26:36;101201.19;;;6.34;86.93
32330;BME280;18807;52.434;13.238;2023-03-04T11:34:19;101208.09;;;6.31;86.78
32330;BME280;18807;52.434;13.238;2023-03-04T11:41:59;101214.16;;;6.27;85.66
32330;BME280;18807;52.434;13.238;2023-03-04T11:57:55;101208.00;;;6.28;75.83
32330;BME280;18807;52.434;13.238;2023-03-04T12:05:42;101212.13;;;6.20;75.54
32330;BME280;18807;52.434;13.238;2023-03-04T12:13:46;101211.88;;;6.13;75.64
32330;BME280;18807;52.434;13.238;2023-03-04T12:21:36;101214.53;;;6.13;76.51
32330;BME280;18807;52.434;13.238;2023-03-04T12:29:19;101205.78;;;6.16;76.28
32330;BME280;18807;52.434;13.238;2023-03-04T12:37:06;101209.28;;;6.15;75.69
32330;BME280;18807;52.434;13.238;2023-03-04T12:44:47;101201.38;;;6.17;74.97
32330;BME280;18807;52.434;13.238;2023-03-04T12:52:36;101203.19;;;6.18;74.45
32330;BME280;18807;52.434;13.238;2023-03-04T13:00:23;101197.75;;;6.14;74.69
32330;BME280;18807;52.434;13.238;2023-03-04T13:08:10;101193.44;;;6.17;76.30
32330;BME280;18807;52.434;13.238;2023-03-04T13:16:00;101190.66;;;6.13;76.40
32330;BME280;18807;52.434;13.238;2023-03-04T13:23:54;101204.66;;;6.09;78.07
32330;BME280;18807;52.434;13.238;2023-03-04T13:31:29;101199.09;;;6.03;78.18
32330;BME280;18807;52.434;13.238;2023-03-04T13:39:26;101193.53;;;5.97;77.88
32330;BME280;18807;52.434;13.238;2023-03-04T13:47:07;101205.94;;;5.98;77.70
32330;BME280;18807;52.434;13.238;2023-03-04T13:54:42;101193.66;;;6.00;79.26
32330;BME280;18807;52.434;13.238;2023-03-04T14:02:19;101193.66;;;6.00;79.11
32330;BME280;18807;52.434;13.238;2023-03-04T14:10:00;101201.75;;;6.03;78.57
32330;BME280;18807;52.434;13.238;2023-03-04T14:17:36;101190.97;;;5.99;74.61
32330;BME280;18807;52.434;13.238;2023-03-04T14:25:22;101202.44;;;5.99;76.35
32330;BME280;18807;52.434;13.238;2023-03-04T14:32:58;101192.38;;;5.91;69.26
32330;BME280;18807;52.434;13.238;2023-03-04T14:40:38;101194.84;;;5.86;69.42
32330;BME280;18807;52.434;13.238;2023-03-04T14:48:18;101193.06;;;5.85;69.31
32330;BME280;18807;52.434;13.238;2023-03-04T14:55:57;101199.09;;;5.81;69.56
32330;BME280;18807;52.434;13.238;2023-03-04T15:03:32;101188.25;;;5.77;69.61
32330;BME280;18807;52.434;13.238;2023-03-04T15:11:19;101192.25;;;5.67;69.12
32330;BME280;18807;52.434;13.238;2023-03-04T15:18:56;101193.63;;;5.58;69.67
32330;BME280;18807;52.434;13.238;2023-03-04T15:26:33;101182.06;;;5.56;71.58
32330;BME280;18807;52.434;13.238;2023-03-04T15:34:11;101188.06;;;5.52;72.20
32330;BME280;18807;52.434;13.238;2023-03-04T15:41:47;101172.09;;;5.50;71.45
32330;BME280;18807;52.434;13.238;2023-03-04T15:49:22;101179.03;;;5.47;72.38
32330;BME280;18807;52.434;13.238;2023-03-04T15:56:58;101178.13;;;5.46;71.85
32330;BME280;18807;52.434;13.238;2023-03-04T16:04:32;101163.88;;;5.43;69.95
32330;BME280;18807;52.434;13.238;2023-03-04T16:12:25;101159.19;;;5.37;71.38
32330;BME280;18807;52.434;13.238;2023-03-04T16:20:00;101164.97;;;5.27;70.29
32330;BME280;18807;52.434;13.238;2023-03-04T16:27:35;101168.25;;;5.22;70.64
32330;BME280;18807;52.434;13.238;2023-03-04T16:35:10;101173.34;;;5.17;70.48
32330;BME280;18807;52.434;13.238;2023-03-04T16:42:46;101164.31;;;5.12;70.28
32330;BME280;18807;52.434;13.238;2023-03-04T16:50:22;101163.09;;;5.04;70.90
32330;BME280;18807;52.434;13.238;2023-03-04T16:58:00;101171.72;;;5.00;71.65
32330;BME280;18807;52.434;13.238;2023-03-04T17:05:34;101185.66;;;4.96;72.32
32330;BME280;18807;52.434;13.238;2023-03-04T17:13:09;101178.44;;;4.92;73.94
32330;BME280;18807;52.434;13.238;2023-03-04T17:20:43;101186.09;;;4.86;74.23
32330;BME280;18807;52.434;13.238;2023-03-04T17:28:18;101208.88;;;4.83;75.42
32330;BME280;18807;52.434;13.238;2023-03-04T17:35:52;101208.72;;;4.80;76.11
32330;BME280;18807;52.434;13.238;2023-03-04T17:43:29;101204.22;;;4.77;77.34
32330;BME280;18807;52.434;13.238;2023-03-04T17:51:04;101207.56;;;4.73;77.62
32330;BME280;18807;52.434;13.238;2023-03-04T17:58:39;101211.75;;;4.68;77.61
32330;BME280;18807;52.434;13.238;2023-03-04T18:06:13;101208.09;;;4.66;78.45
32330;BME280;18807;52.434;13.238;2023-03-04T18:13:50;101197.44;;;4.65;78.79
32330;BME280;18807;52.434;13.238;2023-03-04T18:21:28;101192.88;;;4.61;79.72
32330;BME280;18807;52.434;13.238;2023-03-04T18:29:21;101196.28;;;4.58;80.07
32330;BME280;18807;52.434;13.238;2023-03-04T18:36:55;101196.16;;;4.55;80.71
32330;BME280;18807;52.434;13.238;2023-03-04T18:44:31;101187.66;;;4.62;81.18
32330;BME280;18807;52.434;13.238;2023-03-04T18:52:05;101190.94;;;4.57;81.39
32330;BME280;18807;52.434;13.238;2023-03-04T18:59:43;101195.09;;;4.52;81.97
32330;BME280;18807;52.434;13.238;2023-03-04T19:07:20;101199.41;;;4.50;82.56
32330;BME280;18807;52.434;13.238;2023-03-04T19:14:57;101193.00;;;4.45;82.95
32330;BME280;18807;52.434;13.238;2023-03-04T19:22:31;101192.81;;;4.40;83.59
32330;BME280;18807;52.434;13.238;2023-03-04T19:30:24;101193.50;;;4.36;84.26
32330;BME280;18807;52.434;13.238;2023-03-04T19:37:58;101200.44;;;4.34;85.02
32330;BME280;18807;52.434;13.238;2023-03-04T19:45:33;101193.22;;;4.30;85.71
32330;BME280;18807;52.434;13.238;2023-03-04T19:53:08;101201.00;;;4.27;86.02
32330;BME280;18807;52.434;13.238;2023-03-04T20:00:44;101197.38;;;4.25;86.69
32330;BME280;18807;52.434;13.238;2023-03-04T20:08:19;101194.44;;;4.19;87.83
32330;BME280;18807;52.434;13.238;2023-03-04T20:15:54;101207.59;;;4.18;88.72
32330;BME280;18807;52.434;13.238;2023-03-04T20:23:28;101205.63;;;4.13;88.64
32330;BME280;18807;52.434;13.238;2023-03-04T20:31:15;101208.13;;;4.10;89.51
32330;BME280;18807;52.434;13.238;2023-03-04T20:38:51;101214.84;;;4.04;88.85
32330;BME280;18807;52.434;13.238;2023-03-04T20:46:45;101222.72;;;4.02;88.57
32330;BME280;18807;52.434;13.238;2023-03-04T20:54:19;101209.41;;;4.01;88.74
32330;BME280;18807;52.434;13.238;2023-03-04T21:01:54;101210.97;;;3.96;89.23
32330;BME280;18807;52.434;13.238;2023-03-04T21:09:29;101207.25;;;3.92;89.40
32330;BME280;18807;52.434;13.238;2023-03-04T21:17:05;101200.91;;;3.89;89.49
32330;BME280;18807;52.434;13.238;2023-03-04T21:24:38;101191.94;;;3.85;89.77
32330;BME280;18807;52.434;13.238;2023-03-04T21:32:16;101198.81;;;3.82;88.92
32330;BME280;18807;52.434;13.238;2023-03-04T21:39:56;101197.66;;;3.77;89.59
32330;BME280;18807;52.434;13.238;2023-03-04T21:47:34;101191.50;;;3.76;90.09
32330;BME280;18807;52.434;13.238;2023-03-04T21:55:25;101186.16;;;3.75;90.07
32330;BME280;18807;52.434;13.238;2023-03-04T22:03:01;101169.31;;;3.73;90.02
32330;BME280;18807;52.434;13.238;2023-03-04T22:10:36;101164.78;;;3.70;89.80
32330;BME280;18807;52.434;13.238;2023-03-04T22:18:12;101155.94;;;3.70;89.81
32330;BME280;18807;52.434;13.238;2023-03-04T22:25:47;101152.31;;;3.68;90.12
32330;BME280;18807;52.434;13.238;2023-03-04T22:33:22;101150.44;;;3.65;92.33
32330;BME280;18807;52.434;13.238;2023-03-04T22:40:57;101145.09;;;3.64;95.40
32330;BME280;18807;52.434;13.238;2023-03-04T22:48:32;101144.28;;;3.65;98.38
32330;BME280;18807;52.434;13.238;2023-03-04T22:56:06;101131.97;;;3.65;100.00
32330;BME280;18807;52.434;13.238;2023-03-04T23:03:43;101116.88;;;3.63;100.00
32330;BME280;18807;52.434;13.238;2023-03-04T23:11:21;101105.41;;;3.62;100.00
32330;BME280;18807;52.434;13.238;2023-03-04T23:18:59;101110.59;;;3.61;100.00
32330;BME280;18807;52.434;13.238;2023-03-04T23:26:35;101107.00;;;3.59;100.00
32330;BME280;18807;52.434;13.238;2023-03-04T23:34:12;101103.44;;;3.58;100.00
32330;BME280;18807;52.434;13.238;2023-03-04T23:41:46;101102.31;;;3.53;100.00
32330;BME280;18807;52.434;13.238;2023-03-04T23:49:21;101099.59;;;3.52;100.00
32330;BME280;18807;52.434;13.238;2023-03-04T23:56:55;101093.44;;;3.34;100.00
